createdAt,value
2017-11-28T00:03:47.109Z,91.43
2017-11-28T00:09:51.720Z,91.47
2017-11-28T00:15:55.400Z,91.48
2017-11-28T00:21:58.930Z,91.39
2017-11-28T00:28:02.452Z,91.32
2017-11-28T00:34:06.755Z,91.06
2017-11-28T00:40:10.294Z,91.34
2017-11-28T00:46:13.804Z,91.17
2017-11-28T00:52:17.322Z,91.74
2017-11-28T00:58:21.118Z,91.75
2017-11-28T01:04:25.116Z,92.32
2017-11-28T01:10:28.855Z,92.47
2017-11-28T01:16:32.476Z,92.39
2017-11-28T01:22:36.056Z,91.88
2017-11-28T01:28:39.572Z,89.17
2017-11-28T01:34:43.252Z,88.62
2017-11-28T01:40:46.930Z,88.48
2017-11-28T01:46:51.195Z,88.88
2017-11-28T01:52:54.795Z,89.63
2017-11-28T01:58:59.332Z,90.32
2017-11-28T02:05:02.849Z,90.33
2017-11-28T02:11:06.370Z,90.49
2017-11-28T02:17:09.889Z,90.16
2017-11-28T02:23:13.570Z,89.81
2017-11-28T02:29:17.922Z,90.31
2017-11-28T02:35:21.870Z,89.49
2017-11-28T02:41:26.105Z,89.76
2017-11-28T02:47:29.635Z,90.35
2017-11-28T02:53:34.050Z,89.77
2017-11-28T02:59:37.742Z,89.96
2017-11-28T03:05:41.267Z,90.14
2017-11-28T03:11:44.761Z,90.00
2017-11-28T03:17:48.288Z,89.38
2017-11-28T03:24:25.361Z,89.37
2017-11-28T03:30:35.090Z,88.90
2017-11-28T03:36:39.458Z,88.84
2017-11-28T03:42:44.017Z,88.54
2017-11-28T03:49:09.233Z,88.35
2017-11-28T03:55:12.804Z,87.68
2017-11-28T04:01:16.305Z,87.57
2017-11-28T04:07:21.277Z,87.36
2017-11-28T04:13:24.888Z,87.32
2017-11-28T04:19:28.584Z,87.84
2017-11-28T04:25:32.199Z,88.09
2017-11-28T04:31:35.707Z,87.77
2017-11-28T04:37:39.261Z,87.07
2017-11-28T04:43:42.789Z,86.49
2017-11-28T04:49:46.340Z,86.75
2017-11-28T04:55:49.873Z,86.77
2017-11-28T05:01:53.587Z,86.96
2017-11-28T05:07:58.225Z,86.95
2017-11-28T05:14:01.762Z,87.33
2017-11-28T05:20:05.495Z,88.17
2017-11-28T05:26:09.792Z,89.16
2017-11-28T05:32:13.670Z,88.21
2017-11-28T05:38:17.220Z,87.11
2017-11-28T05:44:20.887Z,87.48
2017-11-28T05:50:24.938Z,86.57
2017-11-28T05:56:28.518Z,86.58
2017-11-28T06:02:32.117Z,85.78
2017-11-28T06:08:36.399Z,85.64
2017-11-28T06:14:40.750Z,87.00
2017-11-28T06:20:44.269Z,86.46
2017-11-28T06:26:47.896Z,86.21
2017-11-28T06:32:51.503Z,86.57
2017-11-28T06:38:55.262Z,86.60
2017-11-28T06:44:59.033Z,86.00
2017-11-28T06:51:03.312Z,86.05
2017-11-28T06:57:07.636Z,85.89
2017-11-28T07:03:11.209Z,85.77
2017-11-28T07:09:14.722Z,85.91
2017-11-28T07:15:19.048Z,86.25
2017-11-28T07:21:22.931Z,86.70
2017-11-28T07:27:27.285Z,85.71
2017-11-28T07:33:30.808Z,85.90
2017-11-28T07:39:34.392Z,85.98
2017-11-28T07:45:37.928Z,85.87
2017-11-28T07:51:41.592Z,85.74
2017-11-28T07:57:45.488Z,85.86
2017-11-28T08:03:49.963Z,85.68
2017-11-28T08:09:54.444Z,85.47
2017-11-28T08:15:58.163Z,85.21
2017-11-28T08:22:01.735Z,84.90
2017-11-28T08:28:05.485Z,85.17
2017-11-28T08:34:09.383Z,85.25
2017-11-28T08:40:12.943Z,84.71
2017-11-28T08:46:16.485Z,84.88
2017-11-28T08:52:20.044Z,84.87
2017-11-28T08:58:24.258Z,84.49
2017-11-28T09:10:56.994Z,83.58
2017-11-28T09:17:00.683Z,84.00
2017-11-28T09:23:04.500Z,83.92
2017-11-28T09:29:08.290Z,83.61
2017-11-28T09:35:12.220Z,82.78
2017-11-28T09:41:15.804Z,82.85
2017-11-28T09:47:19.706Z,81.29
2017-11-28T09:53:23.221Z,79.84
2017-11-28T09:59:27.095Z,79.41
2017-11-28T10:05:30.721Z,79.98
2017-11-28T10:11:34.258Z,79.63
2017-11-28T10:17:37.971Z,79.62
2017-11-28T10:23:41.850Z,79.28
2017-11-28T10:29:45.446Z,78.24
2017-11-28T10:35:49.031Z,77.39
2017-11-28T10:41:53.151Z,77.86
2017-11-28T10:47:57.831Z,77.62
2017-11-28T10:54:01.455Z,77.72
2017-11-28T11:00:05.363Z,76.77
2017-11-28T11:06:08.998Z,76.47
2017-11-28T11:12:12.682Z,75.76
2017-11-28T11:18:16.447Z,75.41
2017-11-28T11:24:20.474Z,75.52
2017-11-28T11:30:24.524Z,75.67
2017-11-28T11:36:28.094Z,75.63
2017-11-28T11:42:32.504Z,75.04
2017-11-28T11:48:36.094Z,75.05
2017-11-28T11:54:39.820Z,74.87
2017-11-28T12:00:43.483Z,75.49
2017-11-28T12:06:47.020Z,75.00
2017-11-28T12:12:51.200Z,75.18
2017-11-28T12:18:55.628Z,75.09
2017-11-28T12:24:59.325Z,75.25
2017-11-28T12:31:02.957Z,75.71
2017-11-28T12:37:07.247Z,75.24
2017-11-28T12:43:10.790Z,75.56
2017-11-28T12:49:15.143Z,75.87
2017-11-28T12:55:19.180Z,75.17
2017-11-28T13:01:23.977Z,75.21
2017-11-28T13:07:27.821Z,75.62
2017-11-28T13:13:31.375Z,76.11
2017-11-28T13:19:35.079Z,76.39
2017-11-28T13:32:15.183Z,76.33
2017-11-28T13:38:18.811Z,76.62
2017-11-28T13:44:23.027Z,76.73
2017-11-28T13:50:26.659Z,76.46
2017-11-28T13:56:31.098Z,76.34
2017-11-28T14:02:34.724Z,76.28
2017-11-28T14:08:38.348Z,76.41
2017-11-28T14:14:42.965Z,76.80
2017-11-28T14:20:52.250Z,75.82
2017-11-28T14:27:01.669Z,75.53
2017-11-28T14:33:07.845Z,75.03
2017-11-28T14:39:22.143Z,76.14
2017-11-28T14:45:29.749Z,75.79
2017-11-28T14:51:38.835Z,75.28
2017-11-28T14:57:42.845Z,76.26
2017-11-28T15:03:52.793Z,76.12
2017-11-28T15:10:01.929Z,76.24
2017-11-28T15:22:59.134Z,75.19
2017-11-28T15:29:05.951Z,74.46
2017-11-28T15:35:10.250Z,74.76
2017-11-28T15:41:13.921Z,75.42
2017-11-28T15:47:17.626Z,77.63
2017-11-28T15:53:21.789Z,78.95
2017-11-28T15:59:25.645Z,80.32
2017-11-28T16:05:30.870Z,79.91
2017-11-28T16:11:35.901Z,79.54
2017-11-28T16:17:39.446Z,80.38
2017-11-28T16:23:42.992Z,81.24
2017-11-28T16:29:46.557Z,80.56
2017-11-28T16:35:50.377Z,79.46
2017-11-28T16:41:55.029Z,79.61
2017-11-28T16:47:58.572Z,78.85
2017-11-28T16:54:02.128Z,78.51
2017-11-28T17:00:05.679Z,78.24
2017-11-28T17:06:09.347Z,78.53
2017-11-28T17:12:12.908Z,78.68
2017-11-28T17:18:17.272Z,79.34
2017-11-28T17:24:20.868Z,80.47
2017-11-28T17:30:26.146Z,81.16
2017-11-28T17:36:30.627Z,81.99
2017-11-28T17:42:34.176Z,82.80
2017-11-28T17:48:37.824Z,83.64
2017-11-28T17:54:41.546Z,83.74
2017-11-28T18:00:45.096Z,82.85
2017-11-28T18:06:48.751Z,83.25
2017-11-28T18:12:53.617Z,82.83
2017-11-28T18:18:57.513Z,82.26
2017-11-28T18:25:01.262Z,82.36
2017-11-28T18:31:05.045Z,82.98
2017-11-28T18:37:09.542Z,83.26
2017-11-28T18:43:13.115Z,83.47
2017-11-28T18:49:16.730Z,83.30
2017-11-28T18:55:20.413Z,82.69
2017-11-28T19:01:24.929Z,82.92
2017-11-28T19:07:28.532Z,82.62
2017-11-28T19:13:32.097Z,82.85
2017-11-28T19:19:35.644Z,83.00
2017-11-28T19:25:39.328Z,82.61
2017-11-28T19:31:42.964Z,82.91
2017-11-28T19:37:46.642Z,82.77
2017-11-28T19:43:51.161Z,83.21
2017-11-28T19:49:55.780Z,83.25
2017-11-28T19:55:59.333Z,83.83
2017-11-28T20:02:03.062Z,84.74
2017-11-28T20:08:06.785Z,85.29
2017-11-28T20:14:10.438Z,85.67
2017-11-28T20:20:14.866Z,86.92
2017-11-28T20:26:18.504Z,87.51
2017-11-28T20:32:22.352Z,87.63
2017-11-28T20:38:26.697Z,87.63
2017-11-28T20:44:30.236Z,87.94
2017-11-28T20:50:33.777Z,88.42
2017-11-28T20:56:37.321Z,88.82
2017-11-28T21:02:41.113Z,88.82
2017-11-28T21:08:44.735Z,88.44
2017-11-28T21:14:49.049Z,87.89
2017-11-28T21:20:53.092Z,86.67
2017-11-28T21:26:56.792Z,85.58
2017-11-28T21:33:00.645Z,85.26
2017-11-28T21:39:04.202Z,85.57
2017-11-28T21:45:07.776Z,85.75
2017-11-28T21:51:11.508Z,85.61
2017-11-28T21:57:15.020Z,85.90
2017-11-28T22:03:19.369Z,86.77
2017-11-28T22:09:23.012Z,87.05
2017-11-28T22:15:26.620Z,87.25
2017-11-28T22:21:30.134Z,87.98
2017-11-28T22:27:33.749Z,88.34
2017-11-28T22:33:37.318Z,88.91
2017-11-28T22:39:40.848Z,88.85
2017-11-28T22:45:44.364Z,88.51
2017-11-28T22:51:47.932Z,88.49
2017-11-28T22:57:52.467Z,87.89
2017-11-28T23:03:56.011Z,87.20
2017-11-28T23:09:59.662Z,86.63
2017-11-28T23:16:03.300Z,86.00
2017-11-28T23:22:06.965Z,85.70
2017-11-28T23:28:10.546Z,84.83
2017-11-28T23:34:14.317Z,84.48
2017-11-28T23:40:18.121Z,85.24
2017-11-28T23:46:22.392Z,86.49
2017-11-28T23:52:26.683Z,87.66
2017-11-28T23:58:30.195Z,88.29
